• Join FlightAware (Why Join?)
  • Login
  • US Flag 
06:45PM EST


 

Airport Tracker/Info


-or-


 

Live Flight TrackerFlight Track Log ✈ DAL3672 ✈ 25-Apr-2013 ✈ KDTW - KMHT

Flight Track Log - Related Links

Times and Time Zones

All times are in EDT time to prevent confusion due to time zone crossing. See the DAL3672 flight status page for this flight to view local times or setup timezone preferences in your user account.

Time Position Orientation Groundspeed Altitude Reporting Facility
EDT Latitude Longitude Course Direction KTS MPH feet Rate Location/Type
10:47AM 42.2067 -83.3519 77° East 131 151 1,400  Level FAA TRACON SMA TRACON (SMA)
10:48AM 42.1958 -83.3528 183° South 130 150 2,000 1,800 Climbing FAA TRACON SMA TRACON (SMA)
10:48AM 42.1806 -83.3503 173° South 159 183 2,600 1,650 Climbing FAA TRACON SMA TRACON (SMA)
10:48AM 42.1625 -83.3475 173° South 188 216 3,100 1,950 Climbing FAA TRACON SMA TRACON (SMA)
10:49AM 42.1483 -83.3450 173° South 190 219 3,900 2,780 Climbing FAA TRACON SMA TRACON (SMA)
10:49AM 42.1311 -83.3411 170° South 188 216 5,000 2,780 Climbing FAA TRACON SMA TRACON (SMA)
10:49AM 42.1108 -83.3372 172° South 208 239 5,800 1,950 Climbing FAA TRACON SMA TRACON (SMA)
10:50AM 42.2932 -82.8488 74° East  Level FlightAware Approximate
10:50AM 42.0914 -83.3264 158° South 258 297 6,300  Level FAA TRACON SMA TRACON (SMA)
10:50AM 42.0772 -83.2919 119° Southeast 294 338 7,100 2,769 Climbing FAA TRACON SMA TRACON (SMA)
10:50AM 42.0683 -83.2597 110° East 296 341 8,100 2,923 Climbing FAA TRACON SMA TRACON (SMA)
10:51AM 42.3213 -82.6785 78° East  Level FlightAware Approximate
10:51AM 42.0603 -83.2272 108° East 299 344 9,000  Level FAA TRACON SMA TRACON (SMA)
10:51AM 42.0589 -83.1911 93° East 325 374 9,600 1,500 Climbing FAA TRACON SMA TRACON (SMA)
10:51AM 42.0744 -83.1472 64° Northeast 350 403 10,000 600 Climbing FAA TRACON SMA TRACON (SMA)
10:52AM 42.3460 -82.5075 77° East  Level FlightAware Approximate
10:52AM 42.0900 -83.1117 59° Northeast 363 418 10,000  Level FAA TRACON SMA TRACON (SMA)
10:52AM 42.1056 -83.0756 60° Northeast 362 417 10,300 1,350 Climbing FAA TRACON SMA TRACON (SMA)
10:52AM 42.1250 -83.0306 60° Northeast 363 418 10,900 1,650 Climbing FAA TRACON SMA TRACON (SMA)
10:53AM 42.1408 -82.9944 59° Northeast 365 420 11,400 1,950 Climbing FAA TRACON SMA TRACON (SMA)
10:53AM 42.1603 -82.9483 60° Northeast 368 423 12,200 2,100 Climbing FAA TRACON SMA TRACON (SMA)
10:53AM 42.1769 -82.9097 60° Northeast 380 437 12,800 1,950 Climbing FAA TRACON SMA TRACON (SMA)
10:54AM 42.1931 -82.8711 61° Northeast 385 443 13,500 2,049 Climbing FAA TRACON SMA TRACON (SMA)
10:54AM 42.2139 -82.8222 60° Northeast 389 448 14,200 2,000 Climbing FAA TRACON SMA TRACON (SMA)
10:54AM 42.2306 -82.7828 60° Northeast 392 451 14,900 1,950 Climbing FAA TRACON SMA TRACON (SMA)
10:55AM 42.2475 -82.7431 60° Northeast 395 455 15,500 1,846 Climbing FAA TRACON SMA TRACON (SMA)
10:55AM 42.2686 -82.6925 61° Northeast 399 459 16,100 1,650 Climbing FAA TRACON SMA TRACON (SMA)
10:55AM 42.2858 -82.6514 60° Northeast 405 466 16,600 1,350 Climbing FAA TRACON SMA TRACON (SMA)
10:56AM 42.3036 -82.6097 60° Northeast 411 473 17,000 1,500 Climbing FAA TRACON SMA TRACON (SMA)
10:56AM 42.3258 -82.5569 60° Northeast 417 480 17,600 1,350 Climbing FAA TRACON SMA TRACON (SMA)
10:56AM 42.3433 -82.5144 61° Northeast 420 483 17,900 1,077 Climbing FAA TRACON SMA TRACON (SMA)
10:57AM 42.3608 -82.4711 61° Northeast 423 487 18,300 1,538 Climbing FAA TRACON SMA TRACON (SMA)
10:57AM 42.3675 -82.4100 82° East 425 489 18,900 1,650 Climbing FAA TRACON SMA TRACON (SMA)
10:57AM 42.3650 -82.3611 94° East 424 488 19,400 1,231 Climbing FAA TRACON SMA TRACON (SMA)
10:58AM 42.3636 -82.3256 93° East 411 473 19,700 1,063 Climbing Cleveland Center
10:59AM 42.3556 -82.1650 94° East 409 471 20,800 1,100 Climbing Cleveland Center
11:00AM 42.3475 -81.9822 93° East 429 494 21,900 800 Climbing Cleveland Center
11:01AM 42.3389 -81.8247 94° East 453 521 22,400 700 Climbing Cleveland Center
11:02AM 42.3322 -81.6478 93° East 467 537 23,300 950 Climbing Cleveland Center
11:03AM 42.3256 -81.4706 93° East 467 537 24,300 1,000 Climbing Cleveland Center
11:04AM 42.3164 -81.2936 94° East 474 545 25,300 950 Climbing Cleveland Center
11:05AM 42.3089 -81.1139 93° East 479 551 26,200 744 Climbing Cleveland Center
11:06AM 42.2972 -80.9144 94° East 484 557 26,800 550 Climbing Cleveland Center
11:07AM 42.2850 -80.7292 95° East 489 563 27,300 504 Climbing Cleveland Center
11:08AM 42.2747 -80.5411 94° East 489 563 27,800 500 Climbing Cleveland Center
11:09AM 42.2661 -80.3586 94° East 502 578 28,300 500 Climbing Cleveland Center
11:10AM 42.2553 -80.1708 94° East 497 572 28,800 350 Climbing Cleveland Center
11:11AM 42.2461 -79.9858 94° East 497 572 29,000 100 Climbing Cleveland Center
11:12AM 42.2325 -79.7981 96° East 497 572 29,000  Level Cleveland Center
11:13AM 42.2206 -79.6103 95° East 497 572 29,000  Level Cleveland Center
11:14AM 42.2083 -79.4169 95° East 502 578 29,000  Level Cleveland Center
11:15AM 42.1958 -79.2294 95° East 502 578 29,000  Level Cleveland Center
11:16AM 42.1997 -79.0361 88° East 502 578 29,000  Level Cleveland Center
11:17AM 42.2261 -78.8447 79° East 507 583 29,000  Level Cleveland Center
11:18AM 42.2481 -78.6506 81° East 513 590 29,000  Level Cleveland Center
11:19AM 42.2739 -78.4589 80° East 518 596 29,000  Level Cleveland Center
11:20AM 42.3142 -78.2722 74° East 518 596 29,000  Level Cleveland Center
11:21AM 42.3603 -78.0850 72° East 518 596 29,000  Level Cleveland Center
11:22AM 42.4058 -77.8947 72° East 524 603 29,000  Level Cleveland Center
11:23AM 42.4372 -77.7247 76° East 524 603 29,000  Level Cleveland Center
11:25AM 42.4744 -77.3250 83° East 530 610 29,000  Level Boston Center
11:26AM 42.4933 -77.1264 83° East 530 610 29,000  Level Boston Center
11:27AM 42.5119 -76.9278 83° East 535 616 29,000  Level Boston Center
11:28AM 42.5300 -76.7289 83° East 535 616 29,000  Level Boston Center
11:29AM 42.5458 -76.5242 84° East 535 616 29,000  Level Boston Center
11:30AM 42.5633 -76.3250 83° East 535 616 29,000  Level Boston Center
11:31AM 42.5831 -76.1006 83° East 535 616 29,000  Level Boston Center
11:32AM 42.6000 -75.8983 83° East 540 621 29,000  Level Boston Center
11:33AM 42.6142 -75.6961 84° East 535 616 29,000  Level Boston Center
11:34AM 42.6325 -75.4908 83° East 535 616 29,000  Level Boston Center
11:35AM 42.6461 -75.2883 85° East 535 616 29,000  Level Boston Center
11:36AM 42.6614 -75.0856 84° East 535 616 29,000  Level Boston Center
11:37AM 42.6764 -74.8772 84° East 535 616 29,000  Level Boston Center
11:38AM 42.6889 -74.6772 85° East 535 616 29,000  Level Boston Center
11:39AM 42.7031 -74.4744 85° East 535 616 29,000 -300 Level Boston Center
11:40AM 42.7169 -74.2686 85° East 535 616 28,400 -750 Descending Boston Center
11:41AM 42.7306 -74.0653 85° East 535 616 27,500 -850 Descending Boston Center
11:42AM 42.7417 -73.8622 86° East 535 616 26,700 -850 Descending Boston Center
11:43AM 42.7542 -73.6700 85° East 535 616 25,800 -950 Descending Boston Center
11:44AM 42.7606 -73.4694 87° East 530 610 24,800 -1,000 Descending Boston Center
11:45AM 42.7683 -73.2658 87° East 530 610 23,800 -1,000 Descending Boston Center
11:46AM 42.7758 -73.0681 87° East 535 616 22,800 -1,000 Descending Boston Center
11:47AM 42.7811 -72.8700 88° East 543 625 21,800 -1,250 Descending Boston Center
11:48AM 42.7856 -72.6947 88° East 497 572 20,300 -2,050 Descending Boston Center
11:49AM 42.7900 -72.5447 88° East 465 535 17,700 -2,800 Descending Boston Center
11:50AM 42.7922 -72.3836 89° East 439 505 14,700 -2,750 Descending Boston Center
11:51AM 42.8044 -72.2392 83° East 397 457 12,200 -2,000 Descending Boston Center
11:52AM 42.8250 -72.0975 79° East 360 414 10,700 -1,600 Descending Boston Center
11:53AM 42.8350 -71.9956 82° East 314 361 9,000 -1,750 Descending Boston Center
11:54AM 42.8200 -71.8769 100° East 287 330 7,200 -1,550 Descending Boston Center
11:55AM 42.8050 -71.7808 102° East 287 330 5,900 -1,100 Descending Boston Center
11:56AM 42.7833 -71.6678 105° East 281 323 5,000 -450 Descending Boston Center
11:57AM 42.7661 -71.5889 107° East 252 290 5,000 -400 Level Boston Center
11:58AM 42.7486 -71.4900 104° East 245 282 4,200 -900 Descending Boston Center
11:59AM 42.7417 -71.4111 97° East 237 273 3,200 -950 Descending Boston Center
12:00PM 42.7869 -71.3536 43° Northeast 203 234 2,300 -900 Descending Boston Center